createdAt,value
2018-05-26T00:01:05.155Z,5.90
2018-05-26T00:03:32.564Z,6.43
2018-05-26T00:05:59.997Z,5.67
2018-05-26T00:08:27.391Z,5.40
2018-05-26T00:10:55.566Z,5.83
2018-05-26T00:13:22.982Z,5.90
2018-05-26T00:15:51.151Z,5.43
2018-05-26T00:18:18.558Z,5.60
2018-05-26T00:20:45.970Z,5.83
2018-05-26T00:23:13.367Z,6.00
2018-05-26T00:25:41.543Z,6.73
2018-05-26T00:28:08.959Z,5.83
2018-05-26T00:30:36.355Z,5.80
2018-05-26T00:33:03.754Z,6.03
2018-05-26T00:35:31.923Z,6.37
2018-05-26T00:37:59.344Z,6.23
2018-05-26T00:40:27.531Z,5.97
2018-05-26T00:42:54.935Z,5.80
2018-05-26T00:45:22.339Z,5.60
2018-05-26T00:47:49.775Z,7.30
2018-05-26T00:50:17.180Z,5.53
2018-05-26T00:52:45.354Z,5.63
2018-05-26T00:55:12.751Z,6.13
2018-05-26T00:57:40.160Z,5.70
2018-05-26T01:00:07.575Z,5.70
2018-05-26T01:02:34.984Z,6.03
2018-05-26T01:05:03.150Z,5.97
2018-05-26T01:07:31.332Z,5.80
2018-05-26T01:09:58.744Z,6.23
2018-05-26T01:12:26.915Z,6.40
2018-05-26T01:14:55.088Z,6.20
2018-05-26T01:17:22.492Z,6.20
2018-05-26T01:19:49.899Z,6.30
2018-05-26T01:22:17.324Z,6.13
2018-05-26T01:24:44.722Z,6.17
2018-05-26T01:27:12.894Z,6.57
2018-05-26T01:29:41.074Z,6.00
2018-05-26T01:32:08.489Z,6.07
2018-05-26T01:34:36.651Z,5.80
2018-05-26T01:37:04.823Z,6.00
2018-05-26T01:39:32.293Z,6.20
2018-05-26T01:41:59.687Z,7.20
2018-05-26T01:44:27.105Z,6.90
2018-05-26T01:46:54.506Z,6.10
2018-05-26T01:49:21.914Z,5.23
2018-05-26T01:51:50.098Z,6.67
2018-05-26T01:54:17.500Z,7.27
2018-05-26T01:56:44.909Z,6.53
2018-05-26T01:59:12.323Z,6.40
2018-05-26T02:01:39.728Z,6.57
2018-05-26T02:04:07.183Z,7.67
2018-05-26T02:06:35.366Z,6.67
2018-05-26T02:09:02.770Z,6.97
2018-05-26T02:11:30.951Z,7.27
2018-05-26T02:13:59.122Z,8.17
2018-05-26T02:16:26.523Z,6.33
2018-05-26T02:18:54.027Z,6.70
2018-05-26T02:21:21.416Z,6.77
2018-05-26T02:23:49.587Z,6.47
2018-05-26T02:26:16.998Z,6.17
2018-05-26T02:28:44.410Z,7.80
2018-05-26T02:31:11.803Z,6.63
2018-05-26T02:33:39.215Z,10.50
2018-05-26T02:36:06.626Z,7.93
2018-05-26T02:38:34.036Z,7.50
2018-05-26T02:41:01.435Z,7.70
2018-05-26T02:43:28.838Z,7.57
2018-05-26T02:45:56.252Z,7.60
2018-05-26T02:48:24.414Z,7.90
2018-05-26T02:50:51.831Z,7.43
2018-05-26T02:53:19.235Z,7.67
2018-05-26T02:55:46.639Z,8.97
2018-05-26T02:58:14.804Z,8.10
2018-05-26T03:00:42.216Z,8.80
2018-05-26T03:03:10.383Z,8.33
2018-05-26T03:05:44.264Z,9.00
2018-05-26T03:08:17.446Z,8.83
2018-05-26T03:10:51.447Z,10.03
2018-05-26T03:13:25.215Z,8.50
2018-05-26T03:16:07.495Z,8.17
2018-05-26T03:18:34.907Z,8.43
2018-05-26T03:21:02.357Z,8.70
2018-05-26T03:23:29.763Z,9.17
2018-05-26T03:25:57.166Z,8.27
2018-05-26T03:28:24.583Z,8.60
2018-05-26T03:30:51.982Z,7.90
2018-05-26T03:33:19.392Z,7.87
2018-05-26T03:35:46.807Z,8.10
2018-05-26T03:38:14.211Z,8.47
2018-05-26T03:40:41.615Z,8.93
2018-05-26T03:43:09.014Z,8.30
2018-05-26T03:45:36.426Z,8.90
2018-05-26T03:48:04.595Z,8.53
2018-05-26T03:50:32.002Z,10.03
2018-05-26T03:52:59.411Z,8.27
2018-05-26T03:55:38.752Z,8.40
2018-05-26T03:58:18.168Z,8.97
2018-05-26T04:00:45.571Z,9.37
2018-05-26T04:03:12.975Z,9.40
2018-05-26T04:05:41.179Z,10.07
2018-05-26T04:08:08.580Z,9.80
2018-05-26T04:10:36.755Z,8.87
2018-05-26T04:13:04.172Z,10.43
2018-05-26T04:15:31.582Z,9.07
2018-05-26T04:17:59.746Z,8.40
2018-05-26T04:20:27.154Z,9.53
2018-05-26T04:22:55.354Z,8.77
2018-05-26T04:25:22.862Z,8.93
2018-05-26T04:27:50.266Z,9.40
2018-05-26T04:30:18.564Z,14.53
2018-05-26T04:32:45.961Z,8.87
2018-05-26T04:35:14.135Z,8.27
2018-05-26T04:37:41.543Z,9.30
2018-05-26T04:40:08.952Z,8.87
2018-05-26T04:42:36.347Z,8.23
2018-05-26T04:45:04.526Z,8.97
2018-05-26T04:47:31.943Z,8.37
2018-05-26T04:50:00.117Z,8.17
2018-05-26T04:52:28.282Z,8.93
2018-05-26T04:54:55.690Z,9.83
2018-05-26T04:57:23.103Z,9.57
2018-05-26T04:59:50.511Z,8.83
2018-05-26T05:02:17.915Z,9.47
2018-05-26T05:04:45.322Z,8.40
2018-05-26T05:07:12.722Z,8.03
2018-05-26T05:09:40.131Z,8.57
2018-05-26T05:12:08.315Z,9.30
2018-05-26T05:14:36.487Z,9.60
2018-05-26T05:17:03.895Z,12.27
2018-05-26T05:19:31.298Z,9.13
2018-05-26T05:21:58.702Z,9.40
2018-05-26T05:24:26.867Z,9.03
2018-05-26T05:26:54.283Z,10.53
2018-05-26T05:29:21.678Z,8.77
2018-05-26T05:31:49.091Z,9.37
2018-05-26T05:34:16.506Z,8.77
2018-05-26T05:36:43.907Z,9.47
2018-05-26T05:39:11.319Z,10.03
2018-05-26T05:41:38.727Z,10.17
2018-05-26T05:44:06.141Z,10.90
2018-05-26T05:46:33.547Z,10.83
2018-05-26T05:49:00.951Z,13.55
2018-05-26T05:51:29.534Z,9.93
2018-05-26T05:53:57.707Z,10.40
2018-05-26T05:56:25.143Z,12.30
2018-05-26T05:58:53.313Z,11.33
2018-05-26T06:01:20.711Z,9.93
2018-05-26T06:03:48.211Z,11.27
2018-05-26T06:06:15.619Z,9.23
2018-05-26T06:08:43.793Z,9.37
2018-05-26T06:11:11.207Z,9.93
2018-05-26T06:13:38.603Z,9.70
2018-05-26T06:16:06.010Z,9.93
2018-05-26T06:18:33.414Z,10.40
2018-05-26T06:21:00.823Z,9.40
2018-05-26T06:23:28.235Z,9.87
2018-05-26T06:25:55.645Z,9.73
2018-05-26T06:28:23.048Z,8.80
2018-05-26T06:30:50.455Z,11.60
2018-05-26T06:33:17.863Z,8.93
2018-05-26T06:35:45.267Z,9.37
2018-05-26T06:38:12.670Z,9.43
2018-05-26T06:40:40.839Z,10.87
2018-05-26T06:43:08.242Z,9.13
2018-05-26T06:45:35.651Z,8.73
2018-05-26T06:48:03.079Z,8.80
2018-05-26T06:50:30.463Z,9.00
2018-05-26T06:52:57.867Z,8.83
2018-05-26T06:55:25.267Z,11.50
2018-05-26T06:57:53.444Z,9.93
2018-05-26T07:00:20.882Z,9.53
2018-05-26T07:02:48.259Z,9.60
2018-05-26T07:05:15.674Z,9.10
2018-05-26T07:07:43.079Z,9.23
2018-05-26T07:10:11.263Z,9.53
2018-05-26T07:12:39.424Z,9.17
2018-05-26T07:15:06.826Z,10.50
2018-05-26T07:17:34.240Z,8.70
2018-05-26T07:20:01.643Z,8.53
2018-05-26T07:22:29.046Z,9.00
2018-05-26T07:24:56.460Z,8.00
2018-05-26T07:27:23.863Z,6.80
2018-05-26T07:29:51.283Z,7.20
2018-05-26T07:32:19.459Z,10.07
2018-05-26T07:34:47.632Z,7.30
2018-05-26T07:37:15.035Z,7.53
2018-05-26T07:39:42.440Z,6.60
2018-05-26T08:58:12.615Z,3.70
2018-05-26T09:00:40.037Z,5.80
2018-05-26T09:03:07.435Z,3.83
2018-05-26T09:05:34.851Z,3.92
2018-05-26T09:08:02.263Z,3.87
2018-05-26T09:10:29.673Z,3.58
2018-05-26T09:12:57.071Z,3.33
2018-05-26T09:15:24.490Z,3.00
2018-05-26T10:26:33.107Z,2.80
2018-05-26T10:53:37.550Z,2.35
2018-05-26T10:58:32.688Z,2.37
2018-05-26T11:05:57.071Z,2.70
2018-05-26T11:08:24.483Z,2.60
2018-05-26T11:10:51.896Z,2.20
2018-05-26T11:13:19.298Z,2.08
2018-05-26T11:18:13.683Z,2.95
2018-05-26T11:20:41.085Z,2.40
2018-05-26T11:30:30.374Z,2.40
2018-05-26T11:32:57.799Z,2.80
2018-05-26T11:35:25.967Z,3.08
2018-05-26T11:37:53.367Z,2.37
2018-05-26T11:40:22.295Z,2.10
2018-05-26T11:42:49.701Z,1.98
2018-05-26T11:45:17.884Z,1.90
2018-05-26T11:47:45.284Z,2.40
2018-05-26T11:50:12.700Z,2.55
2018-05-26T11:52:40.103Z,2.10
2018-05-26T11:55:07.515Z,2.03
2018-05-26T11:57:35.688Z,3.03
2018-05-26T12:00:03.867Z,3.15
2018-05-26T12:02:31.288Z,1.90
2018-05-26T12:04:59.460Z,3.15
2018-05-26T12:07:26.871Z,3.50
2018-05-26T12:09:54.275Z,2.15
2018-05-26T12:12:21.683Z,2.47
2018-05-26T12:14:49.091Z,2.03
2018-05-26T12:17:16.495Z,2.33
2018-05-26T12:19:43.903Z,2.72
2018-05-26T12:22:11.311Z,2.75
2018-05-26T12:24:38.711Z,5.40
2018-05-26T12:27:06.114Z,5.32
2018-05-26T12:29:34.287Z,5.97
2018-05-26T12:32:01.692Z,2.45
2018-05-26T12:34:29.191Z,2.00
2018-05-26T12:36:56.595Z,1.90
2018-05-26T12:39:24.774Z,2.35
2018-05-26T12:41:52.175Z,8.23
2018-05-26T12:44:19.583Z,5.43
2018-05-26T12:49:13.955Z,1.93
2018-05-26T12:51:41.364Z,2.55
2018-05-26T12:54:08.776Z,3.05
2018-05-26T12:56:36.184Z,2.17
2018-05-26T12:59:03.582Z,2.78
2018-05-26T13:01:30.996Z,2.28
2018-05-26T13:03:58.407Z,1.98
2018-05-26T13:06:25.816Z,2.00
2018-05-26T13:08:53.222Z,3.17
2018-05-26T13:11:20.630Z,1.70
2018-05-26T13:13:48.032Z,2.92
2018-05-26T13:16:15.444Z,2.53
2018-05-26T13:18:42.872Z,2.47
2018-05-26T13:23:38.017Z,1.60
2018-05-26T13:26:05.440Z,1.80
2018-05-26T13:28:33.626Z,1.60
2018-05-26T13:31:01.023Z,1.90
2018-05-26T13:35:56.156Z,1.60
2018-05-26T13:38:23.554Z,1.77
2018-05-26T13:40:51.731Z,2.45
2018-05-26T13:43:19.139Z,2.97
2018-05-26T13:45:46.547Z,2.15
2018-05-26T13:48:13.951Z,1.50
2018-05-26T13:50:41.442Z,1.85
2018-05-26T13:53:08.859Z,1.73
2018-05-26T13:55:36.196Z,3.45
2018-05-26T13:58:03.603Z,1.80
2018-05-26T14:00:31.769Z,1.92
2018-05-26T14:02:59.934Z,3.17
2018-05-26T14:05:27.339Z,2.75
2018-05-26T14:07:54.755Z,1.85
2018-05-26T14:10:22.147Z,1.87
2018-05-26T14:12:50.324Z,2.45
2018-05-26T14:17:44.687Z,1.43
2018-05-26T14:20:12.091Z,3.45
2018-05-26T14:22:40.269Z,1.73
2018-05-26T14:27:34.622Z,1.50
2018-05-26T14:30:02.036Z,2.35
2018-05-26T14:34:56.407Z,1.80
2018-05-26T14:37:23.813Z,1.60
2018-05-26T14:39:51.231Z,1.35
2018-05-26T14:42:18.628Z,1.87
2018-05-26T14:44:46.030Z,2.90
2018-05-26T14:47:14.210Z,1.90
2018-05-26T14:52:08.573Z,1.43
2018-05-26T14:54:35.974Z,1.48
2018-05-26T14:57:03.399Z,1.37
2018-05-26T15:11:47.606Z,2.53
2018-05-26T15:14:15.006Z,1.70
2018-05-26T15:16:43.183Z,3.80
2018-05-26T15:19:11.354Z,1.70
2018-05-26T15:21:38.754Z,1.95
2018-05-26T16:05:48.384Z,2.97
2018-05-26T16:08:15.787Z,1.85
2018-05-26T16:10:43.200Z,2.08
2018-05-26T16:13:11.367Z,1.67
2018-05-26T16:15:39.544Z,3.15
2018-05-26T16:18:06.953Z,2.25
2018-05-26T16:20:34.366Z,2.25
2018-05-26T16:23:01.771Z,3.70
2018-05-26T16:35:17.035Z,2.70
2018-05-26T16:37:44.439Z,3.40
2018-05-26T16:40:11.843Z,6.70
2018-05-26T16:50:00.890Z,18.73
2018-05-26T16:59:50.035Z,3.83
2018-05-26T17:31:43.487Z,2.47
2018-05-26T17:34:10.886Z,2.55
2018-05-26T17:36:38.323Z,3.28
2018-05-26T17:43:59.639Z,6.37
2018-05-26T17:53:48.715Z,3.55
2018-05-26T17:56:16.123Z,5.03
2018-05-26T18:03:37.462Z,6.68
2018-05-26T18:06:04.871Z,9.45
2018-05-26T18:08:32.310Z,4.05
2018-05-26T18:10:59.906Z,5.62
2018-05-26T18:13:27.317Z,3.42
2018-05-26T18:15:55.491Z,3.17
2018-05-26T18:30:39.243Z,3.30
2018-05-26T18:33:06.659Z,3.35
2018-05-26T18:35:34.058Z,3.50
2018-05-26T18:38:01.466Z,4.12
2018-05-26T18:40:28.883Z,4.78
2018-05-26T18:42:56.299Z,6.20
2018-05-26T18:45:23.704Z,5.00
2018-05-26T18:47:51.115Z,6.72
2018-05-26T18:50:18.511Z,4.68
2018-05-26T18:52:45.915Z,5.55
2018-05-26T18:55:13.338Z,7.85
2018-05-26T18:57:40.743Z,7.20
2018-05-26T19:00:08.913Z,8.60
2018-05-26T19:05:04.041Z,6.27
2018-05-26T19:12:25.427Z,7.75
2018-05-26T19:14:52.831Z,6.82
2018-05-26T19:19:47.222Z,8.60
2018-05-26T19:22:15.418Z,6.70
2018-05-26T19:24:42.836Z,5.93
2018-05-26T19:27:10.237Z,5.90
2018-05-26T19:29:37.644Z,7.62
2018-05-26T19:32:05.051Z,7.85
2018-05-26T19:34:32.458Z,6.87
2018-05-26T19:36:59.917Z,6.43
2018-05-26T19:39:27.278Z,6.45
2018-05-26T19:41:54.684Z,6.95
2018-05-26T19:44:22.858Z,7.53
2018-05-26T19:46:51.054Z,5.60
2018-05-26T19:49:18.498Z,6.57
2018-05-26T19:51:45.939Z,6.15
2018-05-26T19:54:13.343Z,5.70
2018-05-26T19:56:41.515Z,7.97
2018-05-26T19:59:09.709Z,4.95
2018-05-26T20:01:37.115Z,4.90
2018-05-26T20:04:05.284Z,7.37
2018-05-26T20:06:32.687Z,5.03
2018-05-26T20:09:00.854Z,5.17
2018-05-26T20:11:28.255Z,6.63
2018-05-26T20:13:55.678Z,7.10
2018-05-26T20:16:23.087Z,7.30
2018-05-26T20:18:51.258Z,6.70
2018-05-26T20:21:18.655Z,8.63
2018-05-26T20:23:46.826Z,6.90
2018-05-26T20:26:14.255Z,6.27
2018-05-26T20:28:41.659Z,5.90
2018-05-26T20:31:09.074Z,7.13
2018-05-26T20:33:37.239Z,9.07
2018-05-26T20:36:05.408Z,7.20
2018-05-26T20:38:32.818Z,7.00
2018-05-26T20:41:00.228Z,6.70
2018-05-26T20:43:27.624Z,7.77
2018-05-26T20:45:55.039Z,6.10
2018-05-26T20:48:22.457Z,5.67
2018-05-26T20:50:49.867Z,6.30
2018-05-26T20:53:17.271Z,6.40
2018-05-26T20:55:45.446Z,7.67
2018-05-26T20:58:12.842Z,7.00
2018-05-26T21:00:40.252Z,7.07
2018-05-26T21:03:07.650Z,7.83
2018-05-26T21:05:35.823Z,9.13
2018-05-26T21:08:03.995Z,7.10
2018-05-26T21:10:31.395Z,7.77
2018-05-26T21:12:58.801Z,6.53
2018-05-26T21:15:26.208Z,7.23
2018-05-26T21:17:53.659Z,8.67
2018-05-26T21:20:21.015Z,7.40
2018-05-26T21:22:48.414Z,7.07
2018-05-26T21:25:16.591Z,6.40
2018-05-26T21:27:44.016Z,6.73
2018-05-26T21:30:11.403Z,9.23
2018-05-26T21:32:38.806Z,6.93
2018-05-26T21:35:06.981Z,7.73
2018-05-26T21:37:34.387Z,7.20
2018-05-26T21:40:01.796Z,8.33
2018-05-26T21:42:29.203Z,7.30
2018-05-26T21:44:56.616Z,7.23
2018-05-26T21:47:24.783Z,6.70
2018-05-26T21:49:52.954Z,8.40
2018-05-26T21:52:20.360Z,8.13
2018-05-26T21:54:47.762Z,9.47
2018-05-26T21:57:15.167Z,7.80
2018-05-26T21:59:43.343Z,7.50
2018-05-26T22:02:10.771Z,8.67
2018-05-26T22:04:38.936Z,7.80
2018-05-26T22:07:06.339Z,7.83
2018-05-26T22:09:33.747Z,8.53
2018-05-26T22:12:01.147Z,8.50
2018-05-26T22:14:29.323Z,12.20
2018-05-26T22:16:56.731Z,9.00
2018-05-26T22:19:24.131Z,8.13
2018-05-26T22:21:51.564Z,8.90
2018-05-26T22:24:18.963Z,9.73
2018-05-26T22:26:47.153Z,8.93
2018-05-26T22:29:14.595Z,9.70
2018-05-26T22:31:41.956Z,9.80
2018-05-26T22:34:09.366Z,9.63
2018-05-26T22:36:36.771Z,9.47
2018-05-26T22:39:04.233Z,8.57
2018-05-26T22:41:31.600Z,9.80
2018-05-26T22:43:58.999Z,8.97
2018-05-26T22:46:26.406Z,9.03
2018-05-26T22:48:53.819Z,10.50
2018-05-26T22:51:21.232Z,9.13
2018-05-26T22:53:49.407Z,8.37
2018-05-26T22:56:16.823Z,10.00
2018-05-26T22:58:44.319Z,9.73
2018-05-26T23:01:11.733Z,9.63
2018-05-26T23:03:39.903Z,9.57
2018-05-26T23:06:07.315Z,9.90
2018-05-26T23:08:35.486Z,9.83
2018-05-26T23:11:03.654Z,9.63
2018-05-26T23:13:31.059Z,10.53
2018-05-26T23:15:58.491Z,9.87
2018-05-26T23:18:25.879Z,10.77
2018-05-26T23:20:53.278Z,9.77
2018-05-26T23:23:20.687Z,10.10
2018-05-26T23:25:48.099Z,11.90
2018-05-26T23:28:15.511Z,12.97
2018-05-26T23:30:43.017Z,12.47
2018-05-26T23:33:10.403Z,11.67
2018-05-26T23:35:38.587Z,11.70
2018-05-26T23:38:05.999Z,12.47
2018-05-26T23:40:34.167Z,12.33
2018-05-26T23:43:02.350Z,13.70
2018-05-26T23:45:29.771Z,12.47
2018-05-26T23:47:57.959Z,13.77
2018-05-26T23:50:25.354Z,12.50
2018-05-26T23:52:53.534Z,12.77
2018-05-26T23:55:20.946Z,12.13
2018-05-26T23:57:48.351Z,12.00
